createdAt,value
2023-03-22T00:02:48.869Z,97944.34
2023-03-22T00:05:56.259Z,97947.16
2023-03-22T00:08:59.223Z,97946.22
2023-03-22T00:12:00.720Z,97942.59
2023-03-22T00:15:02.527Z,97938.88
2023-03-22T00:18:06.074Z,97938.03
2023-03-22T00:21:10.595Z,97933.31
2023-03-22T00:24:13.550Z,97935.81
2023-03-22T00:27:15.857Z,97925.34
2023-03-22T00:30:17.965Z,97927.19
2023-03-22T00:33:19.592Z,97926.25
2023-03-22T00:36:21.206Z,97928.00
2023-03-22T00:39:27.131Z,97920.81
2023-03-22T00:42:28.686Z,97910.22
2023-03-22T00:45:30.368Z,97910.06
2023-03-22T00:48:32.011Z,97901.16
2023-03-22T00:51:33.728Z,97896.72
2023-03-22T00:54:36.639Z,97900.94
2023-03-22T00:57:38.562Z,97901.69
2023-03-22T01:00:40.859Z,97893.72
2023-03-22T01:03:43.649Z,97900.69
2023-03-22T01:06:48.902Z,97895.28
2023-03-22T01:09:51.867Z,97891.63
2023-03-22T01:12:54.088Z,97893.31
2023-03-22T01:15:56.195Z,97888.63
2023-03-22T01:18:58.085Z,97882.25
2023-03-22T01:22:00.128Z,97882.09
2023-03-22T01:25:03.729Z,97885.53
2023-03-22T01:28:06.911Z,97879.28
2023-03-22T01:31:08.509Z,97881.78
2023-03-22T01:34:10.266Z,97878.34
2023-03-22T01:37:12.114Z,97877.41
2023-03-22T01:40:20.022Z,97879.06
2023-03-22T01:43:22.066Z,97872.03
2023-03-22T01:46:25.981Z,97864.78
2023-03-22T01:49:29.074Z,97857.53
2023-03-22T01:52:30.948Z,97860.03
2023-03-22T01:55:42.469Z,97853.94
2023-03-22T01:58:48.800Z,97850.41
2023-03-22T02:01:53.598Z,97839.72
2023-03-22T02:04:57.959Z,97845.97
2023-03-22T02:08:02.999Z,97844.16
2023-03-22T02:11:18.406Z,97848.69
2023-03-22T02:14:29.806Z,97839.94
2023-03-22T02:18:18.579Z,97837.31
2023-03-22T02:21:36.710Z,97834.72
2023-03-22T02:24:55.694Z,97832.94
2023-03-22T02:28:18.152Z,97836.44
2023-03-22T02:31:38.638Z,97827.63
2023-03-22T02:34:51.949Z,97830.34
2023-03-22T02:38:12.314Z,97838.31
2023-03-22T02:41:19.631Z,97839.00
2023-03-22T02:44:25.817Z,97835.19
2023-03-22T02:47:34.536Z,97821.69
2023-03-22T02:50:38.809Z,97831.16
2023-03-22T02:53:44.704Z,97821.09
2023-03-22T02:56:48.786Z,97818.34
2023-03-22T02:59:52.364Z,97824.31
2023-03-22T03:02:55.981Z,97812.66
2023-03-22T03:05:59.368Z,97816.03
2023-03-22T03:12:13.663Z,97809.47
2023-03-22T03:15:16.792Z,97808.38
2023-03-22T03:18:27.657Z,97810.94
2023-03-22T03:21:32.713Z,97813.47
2023-03-22T03:24:39.750Z,97804.41
2023-03-22T03:27:50.024Z,97812.38
2023-03-22T03:30:57.009Z,97798.28
2023-03-22T03:34:03.249Z,97794.69
2023-03-22T03:37:08.532Z,97795.47
2023-03-22T03:40:12.846Z,97791.00
2023-03-22T03:43:16.548Z,97785.69
2023-03-22T03:46:18.321Z,97787.50
2023-03-22T03:49:22.022Z,97783.03
2023-03-22T03:52:26.296Z,97794.44
2023-03-22T03:55:29.035Z,97779.53
2023-03-22T03:58:32.151Z,97776.78
2023-03-22T04:01:33.855Z,97781.25
2023-03-22T04:04:47.938Z,97769.91
2023-03-22T04:07:49.981Z,97771.81
2023-03-22T04:10:52.022Z,97783.41
2023-03-22T04:13:56.369Z,97783.50
2023-03-22T04:16:58.693Z,97781.88
2023-03-22T04:20:05.318Z,97781.00
2023-03-22T04:23:11.088Z,97772.19
2023-03-22T04:26:12.913Z,97769.69
2023-03-22T04:29:32.475Z,97758.41
2023-03-22T04:32:49.255Z,97763.97
2023-03-22T04:35:57.021Z,97757.03
2023-03-22T04:39:05.988Z,97752.94
2023-03-22T04:42:08.284Z,97750.97
2023-03-22T04:45:12.437Z,97748.56
2023-03-22T04:48:15.647Z,97750.50
2023-03-22T04:51:17.661Z,97745.19
2023-03-22T04:54:37.462Z,97754.03
2023-03-22T04:57:39.196Z,97755.13
2023-03-22T05:00:42.482Z,97750.81
2023-03-22T05:03:47.439Z,97751.00
2023-03-22T05:06:52.263Z,97749.97
2023-03-22T05:10:02.720Z,97757.25
2023-03-22T05:13:04.591Z,97757.28
2023-03-22T05:16:12.294Z,97753.84
2023-03-22T05:19:24.471Z,97755.72
2023-03-22T05:22:26.658Z,97755.81
2023-03-22T05:25:29.691Z,97758.56
2023-03-22T05:28:32.023Z,97757.63
2023-03-22T05:31:48.461Z,97760.28
2023-03-22T05:34:50.068Z,97763.09
2023-03-22T05:38:08.968Z,97749.00
2023-03-22T05:41:13.841Z,97732.97
2023-03-22T05:44:16.341Z,97734.00
2023-03-22T05:47:29.379Z,97740.41
2023-03-22T05:50:47.109Z,97739.47
2023-03-22T05:53:49.341Z,97742.97
2023-03-22T05:56:55.840Z,97756.19
2023-03-22T05:59:59.001Z,97739.31
2023-03-22T06:03:16.979Z,97737.59
2023-03-22T06:06:25.035Z,97733.38
2023-03-22T06:09:39.897Z,97726.34
2023-03-22T06:12:45.538Z,97734.25
2023-03-22T06:15:58.956Z,97720.03
2023-03-22T06:19:02.462Z,97726.19
2023-03-22T06:22:04.573Z,97728.16
2023-03-22T06:25:09.441Z,97727.22
2023-03-22T06:28:15.802Z,97726.88
2023-03-22T06:31:24.833Z,97726.28
2023-03-22T06:34:32.954Z,97728.47
2023-03-22T06:37:36.138Z,97727.22
2023-03-22T06:40:38.986Z,97723.56
2023-03-22T06:43:40.965Z,97719.66
2023-03-22T06:46:56.978Z,97729.19
2023-03-22T06:50:26.070Z,97712.00
2023-03-22T06:53:41.682Z,97727.59
2023-03-22T06:56:43.422Z,97719.31
2023-03-22T06:59:45.836Z,97721.03
2023-03-22T07:02:47.480Z,97716.41
2023-03-22T07:06:10.025Z,97715.56
2023-03-22T07:09:15.686Z,97714.91
2023-03-22T07:12:18.755Z,97710.97
2023-03-22T07:15:24.750Z,97716.72
2023-03-22T07:18:33.297Z,97703.09
2023-03-22T07:21:36.429Z,97705.34
2023-03-22T07:24:53.786Z,97708.59
2023-03-22T07:27:59.420Z,97713.69
2023-03-22T07:31:02.181Z,97704.03
2023-03-22T07:34:07.743Z,97711.16
2023-03-22T07:37:19.282Z,97701.47
2023-03-22T07:40:20.962Z,97703.03
2023-03-22T07:43:24.962Z,97696.41
2023-03-22T07:46:31.292Z,97689.28
2023-03-22T07:49:55.366Z,97696.94
2023-03-22T07:53:03.802Z,97695.66
2023-03-22T07:56:06.207Z,97695.31
2023-03-22T07:59:08.268Z,97690.50
2023-03-22T08:02:11.417Z,97691.84
2023-03-22T08:05:22.602Z,97685.56
2023-03-22T08:08:32.522Z,97682.56
2023-03-22T08:11:34.167Z,97686.59
2023-03-22T08:14:37.841Z,97681.84
2023-03-22T08:17:44.418Z,97678.94
2023-03-22T08:20:55.261Z,97671.00
2023-03-22T08:23:58.580Z,97675.41
2023-03-22T08:27:18.964Z,97678.84
2023-03-22T08:30:24.733Z,97680.66
2023-03-22T08:33:28.716Z,97661.81
2023-03-22T08:36:30.280Z,97661.38
2023-03-22T08:39:36.779Z,97666.41
2023-03-22T08:42:54.902Z,97661.84
2023-03-22T08:45:57.291Z,97655.50
2023-03-22T08:49:01.381Z,97654.25
2023-03-22T08:52:09.410Z,97653.31
2023-03-22T08:55:28.990Z,97664.13
2023-03-22T08:58:46.751Z,97660.59
2023-03-22T09:02:07.251Z,97651.66
2023-03-22T09:05:09.577Z,97650.94
2023-03-22T09:08:19.072Z,97659.03
2023-03-22T09:11:27.521Z,97652.25
2023-03-22T09:14:29.211Z,97643.38
2023-03-22T09:17:31.156Z,97643.38
2023-03-22T09:20:33.121Z,97635.88
2023-03-22T09:23:35.650Z,97631.78
2023-03-22T09:26:38.777Z,97624.06
2023-03-22T09:29:42.444Z,97633.69
2023-03-22T09:32:49.373Z,97625.09
2023-03-22T09:35:53.218Z,97615.94
2023-03-22T09:38:55.090Z,97617.09
2023-03-22T09:42:00.856Z,97617.63
2023-03-22T09:45:04.056Z,97615.53
2023-03-22T09:48:12.410Z,97609.84
2023-03-22T09:51:21.460Z,97599.88
2023-03-22T09:54:28.312Z,97611.50
2023-03-22T09:57:33.290Z,97602.66
2023-03-22T10:04:01.010Z,97601.72
2023-03-22T10:07:07.065Z,97596.38
2023-03-22T10:10:09.989Z,97603.84
2023-03-22T10:13:16.468Z,97609.75
2023-03-22T10:16:24.928Z,97599.66
2023-03-22T10:19:31.468Z,97588.25
2023-03-22T10:22:34.288Z,97592.19
2023-03-22T10:25:37.003Z,97588.25
2023-03-22T10:28:41.338Z,97596.50
2023-03-22T10:31:44.710Z,97584.41
2023-03-22T10:34:47.000Z,97585.28
2023-03-22T10:37:49.823Z,97574.63
2023-03-22T10:40:53.157Z,97590.06
2023-03-22T10:43:57.847Z,97579.97
2023-03-22T10:47:01.826Z,97576.44
2023-03-22T10:50:04.888Z,97574.44
2023-03-22T10:53:13.610Z,97576.38
2023-03-22T10:56:16.722Z,97571.75
2023-03-22T10:59:37.270Z,97569.72
2023-03-22T11:02:47.096Z,97558.31
2023-03-22T11:05:57.480Z,97567.31
2023-03-22T11:09:00.008Z,97561.94
2023-03-22T11:12:09.141Z,97565.06
2023-03-22T11:15:19.481Z,97569.19
2023-03-22T11:18:23.357Z,97574.75
2023-03-22T11:21:29.125Z,97572.56
2023-03-22T11:24:32.090Z,97577.41
2023-03-22T11:27:33.924Z,97581.34
2023-03-22T11:30:35.967Z,97575.44
2023-03-22T11:33:44.535Z,97581.63
2023-03-22T11:36:54.737Z,97579.13
2023-03-22T11:39:59.626Z,97595.47
2023-03-22T11:43:11.143Z,97591.00
2023-03-22T11:46:12.900Z,97590.56
2023-03-22T11:49:17.453Z,97575.13
2023-03-22T11:52:20.097Z,97568.50
2023-03-22T11:55:21.832Z,97578.66
2023-03-22T11:58:27.149Z,97577.75
2023-03-22T12:01:33.156Z,97583.97
2023-03-22T12:04:37.897Z,97577.13
2023-03-22T12:07:40.725Z,97590.75
2023-03-22T12:10:43.691Z,97587.16
2023-03-22T12:13:47.885Z,97600.34
2023-03-22T12:16:50.798Z,97591.59
2023-03-22T12:19:58.297Z,97577.13
2023-03-22T12:23:00.001Z,97588.72
2023-03-22T12:26:04.168Z,97584.44
2023-03-22T12:29:06.765Z,97585.53
2023-03-22T12:32:11.982Z,97577.38
2023-03-22T12:35:18.251Z,97571.59
2023-03-22T12:38:24.895Z,97563.75
2023-03-22T12:41:27.929Z,97561.09
2023-03-22T12:44:33.069Z,97557.44
2023-03-22T12:47:36.841Z,97552.94
2023-03-22T12:50:42.911Z,97542.97
2023-03-22T12:53:45.747Z,97534.28
2023-03-22T12:56:48.118Z,97547.53
2023-03-22T12:59:51.583Z,97538.13
2023-03-22T13:02:57.886Z,97527.22
2023-03-22T13:06:03.440Z,97524.19
2023-03-22T13:09:16.270Z,97519.22
2023-03-22T13:12:29.186Z,97526.28
2023-03-22T13:15:41.246Z,97533.38
2023-03-22T13:18:58.321Z,97535.31
2023-03-22T13:22:21.795Z,97526.06
2023-03-22T13:25:30.302Z,97525.56
2023-03-22T13:28:37.161Z,97519.44
2023-03-22T13:31:41.386Z,97530.25
2023-03-22T13:34:45.778Z,97519.38
2023-03-22T13:37:49.424Z,97528.38
2023-03-22T13:40:54.775Z,97534.69
2023-03-22T13:43:57.454Z,97529.47
2023-03-22T13:47:01.226Z,97533.00
2023-03-22T13:50:07.446Z,97542.00
2023-03-22T13:53:16.060Z,97541.81
2023-03-22T13:56:30.603Z,97537.97
2023-03-22T14:00:08.911Z,97542.28
2023-03-22T14:03:15.940Z,97550.66
2023-03-22T14:06:20.857Z,97544.88
2023-03-22T14:09:27.772Z,97548.97
2023-03-22T14:12:32.194Z,97540.38
2023-03-22T14:15:38.636Z,97527.97
2023-03-22T14:18:43.485Z,97524.34
2023-03-22T14:21:48.386Z,97529.50
